createdAt,value
2018-11-01T00:01:04.337Z,101363.27
2018-11-01T00:03:32.938Z,101352.78
2018-11-01T00:06:00.969Z,101347.48
2018-11-01T00:08:28.986Z,101358.11
2018-11-01T00:10:56.974Z,101362.70
2018-11-01T00:13:24.970Z,101354.89
2018-11-01T00:15:52.911Z,101348.76
2018-11-01T00:18:20.840Z,101343.45
2018-11-01T00:20:48.796Z,101339.20
2018-11-01T00:23:16.742Z,101344.92
2018-11-01T00:25:44.742Z,101331.75
2018-11-01T00:28:12.632Z,101333.45
2018-11-01T00:30:41.139Z,101341.66
2018-11-01T00:33:09.144Z,101338.16
2018-11-01T00:35:37.112Z,101329.05
2018-11-01T00:38:05.573Z,101336.88
2018-11-01T00:40:33.506Z,101330.50
2018-11-01T00:43:01.459Z,101336.03
2018-11-01T00:45:29.471Z,101337.34
2018-11-01T00:47:57.501Z,101341.61
2018-11-01T00:50:25.449Z,101344.22
2018-11-01T00:52:53.405Z,101335.70
2018-11-01T00:55:21.353Z,101330.64
2018-11-01T00:57:49.340Z,101330.46
2018-11-01T01:00:17.340Z,101332.24
2018-11-01T01:02:45.281Z,101333.73
2018-11-01T01:05:13.303Z,101333.59
2018-11-01T01:07:41.329Z,101337.58
2018-11-01T01:10:12.735Z,101332.98
2018-11-01T01:12:41.345Z,101335.52
2018-11-01T01:15:09.621Z,101327.47
2018-11-01T01:17:37.728Z,101325.68
2018-11-01T01:20:08.074Z,101330.17
2018-11-01T01:22:36.069Z,101327.73
2018-11-01T01:25:05.356Z,101326.06
2018-11-01T01:27:33.228Z,101318.80
2018-11-01T01:30:01.148Z,101316.31
2018-11-01T01:32:29.099Z,101307.52
2018-11-01T01:34:56.972Z,101306.53
2018-11-01T01:37:24.860Z,101309.44
2018-11-01T01:39:52.794Z,101300.54
2018-11-01T01:42:20.788Z,101292.91
2018-11-01T01:44:48.701Z,101288.89
2018-11-01T01:47:16.654Z,101294.09
2018-11-01T01:49:44.590Z,101283.31
2018-11-01T01:52:12.622Z,101290.23
2018-11-01T01:54:40.631Z,101282.98
2018-11-01T01:57:08.530Z,101283.08
2018-11-01T01:59:36.508Z,101274.23
2018-11-01T02:02:04.859Z,101277.23
2018-11-01T02:04:32.785Z,101268.56
2018-11-01T02:07:00.689Z,101257.76
2018-11-01T02:09:28.637Z,101260.63
2018-11-01T02:11:56.719Z,101262.36
2018-11-01T02:14:24.647Z,101253.50
2018-11-01T02:16:52.567Z,101262.01
2018-11-01T02:19:20.538Z,101258.88
2018-11-01T02:21:48.522Z,101247.52
2018-11-01T02:24:16.528Z,101240.86
2018-11-01T02:26:44.596Z,101242.64
2018-11-01T02:29:12.564Z,101231.42
2018-11-01T02:31:40.534Z,101236.42
2018-11-01T02:34:08.491Z,101215.70
2018-11-01T02:36:36.444Z,101238.22
2018-11-01T02:39:07.634Z,101219.64
2018-11-01T02:41:35.629Z,101220.36
2018-11-01T02:44:03.619Z,101219.91
2018-11-01T02:46:31.501Z,101220.66
2018-11-01T02:48:59.466Z,101216.41
2018-11-01T02:51:27.741Z,101214.91
2018-11-01T02:53:55.766Z,101210.28
2018-11-01T02:56:23.708Z,101209.66
2018-11-01T02:58:51.832Z,101195.11
2018-11-01T03:01:19.812Z,101189.31
2018-11-01T03:03:49.073Z,101192.58
2018-11-01T03:06:17.764Z,101198.30
2018-11-01T03:08:45.897Z,101195.30
2018-11-01T03:11:13.944Z,101201.34
2018-11-01T03:13:41.973Z,101199.14
2018-11-01T03:16:09.969Z,101193.90
2018-11-01T03:18:37.949Z,101199.56
2018-11-01T03:21:05.986Z,101199.61
2018-11-01T03:23:34.020Z,101194.98
2018-11-01T03:26:02.043Z,101193.20
2018-11-01T03:28:30.066Z,101184.97
2018-11-01T03:30:58.093Z,101184.41
2018-11-01T03:33:26.018Z,101183.37
2018-11-01T03:35:54.031Z,101172.19
2018-11-01T03:38:22.086Z,101168.26
2018-11-01T03:40:49.967Z,101170.41
2018-11-01T03:43:17.871Z,101164.12
2018-11-01T03:45:45.865Z,101171.71
2018-11-01T03:48:13.764Z,101165.67
2018-11-01T03:50:41.725Z,101173.58
2018-11-01T03:53:09.665Z,101173.58
2018-11-01T03:55:37.641Z,101158.92
2018-11-01T03:58:05.992Z,101144.66
2018-11-01T04:00:33.976Z,101141.66
2018-11-01T04:03:01.921Z,101133.80
2018-11-01T04:05:30.624Z,101135.63
2018-11-01T04:07:58.669Z,101136.22
2018-11-01T04:10:26.579Z,101129.56
2018-11-01T04:12:56.291Z,101133.78
2018-11-01T04:15:24.402Z,101133.23
2018-11-01T04:17:52.235Z,101129.41
2018-11-01T04:20:20.234Z,101115.70
2018-11-01T04:22:48.791Z,101117.75
2018-11-01T04:25:17.608Z,101117.66
2018-11-01T04:27:47.168Z,101117.70
2018-11-01T04:30:15.176Z,101105.22
2018-11-01T04:32:43.178Z,101115.31
2018-11-01T04:35:11.167Z,101121.39
2018-11-01T04:37:39.414Z,101109.20
2018-11-01T04:40:07.851Z,101111.45
2018-11-01T04:42:35.809Z,101104.09
2018-11-01T04:45:03.907Z,101090.45
2018-11-01T04:47:31.881Z,101091.52
2018-11-01T04:49:59.825Z,101081.28
2018-11-01T04:52:27.785Z,101084.09
2018-11-01T04:54:55.794Z,101088.21
2018-11-01T04:57:23.815Z,101094.52
2018-11-01T04:59:51.765Z,101086.99
2018-11-01T05:02:20.166Z,101089.89
2018-11-01T05:04:48.191Z,101091.77
2018-11-01T05:07:16.226Z,101092.17
2018-11-01T05:09:44.158Z,101093.12
2018-11-01T05:12:12.114Z,101090.83
2018-11-01T05:14:40.077Z,101084.14
2018-11-01T05:17:08.036Z,101090.63
2018-11-01T05:19:35.974Z,101093.11
2018-11-01T05:22:04.670Z,101093.25
2018-11-01T05:24:32.572Z,101093.25
2018-11-01T05:27:00.501Z,101091.98
2018-11-01T05:29:28.451Z,101098.33
2018-11-01T05:31:56.420Z,101103.20
2018-11-01T05:34:24.369Z,101096.04
2018-11-01T05:36:52.314Z,101090.20
2018-11-01T05:39:20.303Z,101080.06
2018-11-01T05:41:48.223Z,101069.28
2018-11-01T05:44:16.180Z,101070.87
2018-11-01T05:46:44.217Z,101072.93
2018-11-01T05:49:12.188Z,101072.91
2018-11-01T05:51:40.133Z,101070.14
2018-11-01T05:54:08.013Z,101068.59
2018-11-01T05:56:35.971Z,101080.55
2018-11-01T05:59:04.020Z,101083.05
2018-11-01T06:01:33.352Z,101085.61
2018-11-01T06:04:01.928Z,101092.16
2018-11-01T06:06:29.833Z,101088.70
2018-11-01T06:08:58.996Z,101091.05
2018-11-01T06:11:26.880Z,101104.51
2018-11-01T06:13:54.868Z,101101.13
2018-11-01T06:16:22.860Z,101104.78
2018-11-01T06:18:50.808Z,101100.53
2018-11-01T06:21:18.745Z,101093.64
2018-11-01T06:23:46.663Z,101105.36
2018-11-01T06:26:14.756Z,101105.70
2018-11-01T06:28:42.719Z,101101.99
2018-11-01T06:31:10.665Z,101090.58
2018-11-01T06:33:38.737Z,101092.08
2018-11-01T06:36:08.800Z,101100.11
2018-11-01T06:38:36.801Z,101101.52
2018-11-01T06:41:04.763Z,101098.66
2018-11-01T06:43:32.688Z,101091.55
2018-11-01T06:46:00.725Z,101099.35
2018-11-01T06:48:28.703Z,101091.36
2018-11-01T06:50:56.626Z,101100.33
2018-11-01T06:53:24.565Z,101107.88
2018-11-01T06:55:52.454Z,101108.69
2018-11-01T06:58:20.415Z,101117.81
2018-11-01T07:00:48.404Z,101113.27
2018-11-01T07:03:16.353Z,101104.00
2018-11-01T07:05:44.325Z,101095.78
2018-11-01T07:08:12.271Z,101092.50
2018-11-01T07:10:40.357Z,101090.55
2018-11-01T07:13:08.323Z,101096.45
2018-11-01T07:15:36.365Z,101090.48
2018-11-01T07:18:04.528Z,101077.66
2018-11-01T07:20:32.510Z,101087.45
2018-11-01T07:23:01.444Z,101080.92
2018-11-01T07:25:29.570Z,101085.45
2018-11-01T07:27:57.445Z,101090.16
2018-11-01T07:30:25.554Z,101089.48
2018-11-01T07:32:53.547Z,101086.48
2018-11-01T07:35:21.544Z,101090.21
2018-11-01T07:37:49.568Z,101096.30
2018-11-01T07:40:17.992Z,101099.13
2018-11-01T07:42:46.070Z,101104.08
2018-11-01T07:45:14.660Z,101109.31
2018-11-01T07:47:43.445Z,101112.83
2018-11-01T07:50:12.471Z,101103.19
2018-11-01T07:52:40.917Z,101111.09
2018-11-01T07:55:11.353Z,101114.04
2018-11-01T07:57:39.265Z,101113.40
2018-11-01T08:00:10.677Z,101103.20
2018-11-01T08:02:38.675Z,101106.91
2018-11-01T08:05:08.022Z,101112.58
2018-11-01T08:07:36.169Z,101112.36
2018-11-01T08:10:06.084Z,101104.33
2018-11-01T08:12:34.172Z,101102.29
2018-11-01T08:15:02.240Z,101111.13
2018-11-01T08:17:30.237Z,101104.72
2018-11-01T08:19:58.444Z,101101.98
2018-11-01T08:22:26.353Z,101101.36
2018-11-01T08:24:54.360Z,101096.41
2018-11-01T08:27:22.324Z,101087.18
2018-11-01T08:29:50.373Z,101094.21
2018-11-01T08:32:18.446Z,101087.28
2018-11-01T08:34:46.454Z,101078.52
2018-11-01T08:37:14.762Z,101080.44
2018-11-01T08:39:42.709Z,101079.75
2018-11-01T08:42:13.279Z,101071.56
2018-11-01T08:44:41.353Z,101083.08
2018-11-01T08:47:09.960Z,101073.48
2018-11-01T08:49:38.012Z,101074.02
2018-11-01T08:52:06.028Z,101066.08
2018-11-01T08:54:45.929Z,101067.84
2018-11-01T08:57:14.101Z,101063.53
2018-11-01T08:59:42.406Z,101060.73
2018-11-01T09:02:10.402Z,101057.84
2018-11-01T09:04:38.485Z,101055.64
2018-11-01T09:07:06.479Z,101054.49
2018-11-01T09:09:34.503Z,101062.28
2018-11-01T09:12:02.599Z,101066.39
2018-11-01T09:14:30.648Z,101063.92
2018-11-01T09:16:58.614Z,101059.03
2018-11-01T09:19:27.343Z,101068.48
2018-11-01T09:21:55.325Z,101056.07
2018-11-01T09:24:23.345Z,101058.52
2018-11-01T09:26:51.369Z,101041.95
2018-11-01T09:29:19.290Z,101043.08
2018-11-01T09:31:47.257Z,101038.88
2018-11-01T09:34:15.255Z,101041.75
2018-11-01T09:36:43.349Z,101044.08
2018-11-01T09:39:12.091Z,101037.73
2018-11-01T09:41:40.756Z,101050.12
2018-11-01T09:44:08.731Z,101056.82
2018-11-01T09:46:37.093Z,101057.11
2018-11-01T09:49:05.581Z,101055.58
2018-11-01T09:51:33.623Z,101063.61
2018-11-01T09:54:01.592Z,101049.79
2018-11-01T09:56:29.647Z,101061.95
2018-11-01T09:58:59.011Z,101064.95
2018-11-01T10:01:27.054Z,101060.63
2018-11-01T10:03:55.053Z,101060.47
2018-11-01T10:06:23.649Z,101061.81
2018-11-01T10:08:51.599Z,101062.11
2018-11-01T10:11:19.601Z,101052.34
2018-11-01T10:13:47.547Z,101054.74
2018-11-01T10:16:15.682Z,101055.27
2018-11-01T10:18:43.577Z,101046.76
2018-11-01T10:21:11.678Z,101041.61
2018-11-01T10:23:39.846Z,101044.45
2018-11-01T10:26:07.852Z,101038.92
2018-11-01T10:28:35.893Z,101038.49
2018-11-01T10:31:04.499Z,101029.87
2018-11-01T10:33:33.031Z,101027.52
2018-11-01T10:36:01.811Z,101027.82
2018-11-01T10:38:29.891Z,101020.19
2018-11-01T10:40:58.093Z,101018.68
2018-11-01T10:43:26.048Z,101010.36
2018-11-01T10:45:54.025Z,101010.13
2018-11-01T10:48:22.009Z,100999.03
2018-11-01T10:50:50.056Z,101003.36
2018-11-01T10:53:18.092Z,101000.95
2018-11-01T10:55:46.562Z,100995.40
2018-11-01T10:58:14.504Z,100988.47
2018-11-01T11:00:48.092Z,100997.78
2018-11-01T11:03:16.093Z,100992.95
2018-11-01T11:05:44.030Z,100991.88
2018-11-01T11:08:11.952Z,100985.45
2018-11-01T11:10:39.955Z,100976.73
2018-11-01T11:13:07.895Z,100974.47
2018-11-01T11:15:35.957Z,100974.20
2018-11-01T11:18:03.914Z,100972.97
2018-11-01T11:20:32.039Z,100972.88
2018-11-01T11:22:59.893Z,100969.61
2018-11-01T11:25:27.871Z,100973.28
2018-11-01T11:27:55.865Z,100970.98
2018-11-01T11:30:24.354Z,100964.45
2018-11-01T11:32:52.249Z,100969.47
2018-11-01T11:35:20.227Z,100960.21
2018-11-01T11:37:48.224Z,100960.88
2018-11-01T11:40:16.220Z,100956.52
2018-11-01T11:42:44.281Z,100961.91
2018-11-01T11:45:12.897Z,100958.87
2018-11-01T11:47:41.455Z,100957.79
2018-11-01T11:50:10.920Z,100956.36
2018-11-01T11:52:38.949Z,100953.86
2018-11-01T11:55:07.512Z,100955.54
2018-11-01T11:57:35.543Z,100951.83
2018-11-01T12:00:03.862Z,100953.49
2018-11-01T12:02:31.953Z,100943.84
2018-11-01T12:04:59.930Z,100950.15
2018-11-01T12:07:27.976Z,100955.00
2018-11-01T12:09:56.039Z,100953.15
2018-11-01T12:12:24.037Z,100960.98
2018-11-01T12:14:52.052Z,100953.86
2018-11-01T12:17:20.126Z,100953.13
2018-11-01T12:19:48.091Z,100944.28
2018-11-01T12:22:16.369Z,100943.39
2018-11-01T12:24:44.811Z,100944.32
2018-11-01T12:27:12.763Z,100939.39
2018-11-01T12:29:40.674Z,100935.26
2018-11-01T12:32:08.731Z,100930.16
2018-11-01T12:34:36.676Z,100928.25
2018-11-01T12:37:08.343Z,100919.17
2018-11-01T12:39:36.291Z,100914.33
2018-11-01T12:42:04.347Z,100915.88
2018-11-01T12:44:32.358Z,100909.13
2018-11-01T12:47:00.315Z,100914.39
2018-11-01T12:49:28.225Z,100906.80
2018-11-01T12:51:56.198Z,100909.22
2018-11-01T12:54:24.179Z,100908.55
2018-11-01T12:56:54.852Z,100909.32
2018-11-01T12:59:22.774Z,100903.20
2018-11-01T13:01:50.793Z,100895.56
2018-11-01T13:04:18.964Z,100903.45
2018-11-01T13:06:47.007Z,100895.00
2018-11-01T13:09:14.931Z,100899.02
2018-11-01T13:11:43.168Z,100896.55
2018-11-01T13:14:11.115Z,100887.25
2018-11-01T13:16:39.504Z,100895.67
2018-11-01T13:19:07.524Z,100892.89
2018-11-01T13:21:35.522Z,100900.31
2018-11-01T13:24:03.520Z,100906.48
2018-11-01T13:26:34.201Z,100906.21
2018-11-01T13:29:02.195Z,100898.16
2018-11-01T13:31:30.199Z,100888.80
2018-11-01T13:33:58.269Z,100886.84
2018-11-01T13:36:26.247Z,100880.07
2018-11-01T13:38:54.209Z,100883.89
2018-11-01T13:41:22.319Z,100887.59
2018-11-01T13:43:50.377Z,100877.97
2018-11-01T13:46:18.571Z,100881.13
2018-11-01T13:48:47.303Z,100879.80
2018-11-01T13:51:16.084Z,100885.89
2018-11-01T13:53:44.108Z,100880.79
2018-11-01T13:56:12.018Z,100884.70
2018-11-01T13:58:40.001Z,100881.77
2018-11-01T14:01:08.102Z,100871.11
2018-11-01T14:03:36.020Z,100874.73
2018-11-01T14:06:04.027Z,100872.25
2018-11-01T14:08:31.981Z,100876.72
2018-11-01T14:10:59.902Z,100868.41
2018-11-01T14:13:28.123Z,100878.59
2018-11-01T14:15:55.977Z,100885.58
2018-11-01T14:18:23.934Z,100887.73
2018-11-01T14:20:51.902Z,100896.05
2018-11-01T14:23:19.848Z,100897.36
2018-11-01T14:25:47.917Z,100886.30
2018-11-01T14:28:16.050Z,100887.55
2018-11-01T14:30:44.154Z,100882.26
2018-11-01T14:33:12.154Z,100880.50
2018-11-01T14:35:40.059Z,100884.53
2018-11-01T14:38:08.155Z,100879.25
2018-11-01T14:40:36.091Z,100875.23
2018-11-01T14:43:04.612Z,100887.55
2018-11-01T14:45:33.208Z,100891.50
2018-11-01T14:48:01.149Z,100897.09
2018-11-01T14:50:29.084Z,100896.14
2018-11-01T14:52:57.210Z,100894.20
2018-11-01T14:55:26.231Z,100896.77
2018-11-01T14:58:00.093Z,100901.67
2018-11-01T15:00:26.545Z,100901.43
2018-11-01T15:02:59.549Z,100903.70
2018-11-01T15:05:30.581Z,100910.09
2018-11-01T15:07:58.613Z,100901.58
2018-11-01T15:10:27.384Z,100902.39
2018-11-01T15:13:05.597Z,100904.70
2018-11-01T15:15:36.681Z,100901.81
2018-11-01T15:18:04.891Z,100892.58
2018-11-01T15:20:33.869Z,100893.66
2018-11-01T15:23:02.065Z,100894.02
2018-11-01T15:25:31.656Z,100893.59
2018-11-01T15:27:59.638Z,100889.24
2018-11-01T15:30:27.759Z,100888.37
2018-11-01T15:32:56.413Z,100890.52
2018-11-01T15:35:24.527Z,100889.61
2018-11-01T15:37:55.027Z,100890.11
2018-11-01T15:40:23.190Z,100885.22
2018-11-01T15:42:51.232Z,100888.23
2018-11-01T15:45:19.294Z,100883.03
2018-11-01T15:47:47.451Z,100888.23
2018-11-01T15:50:15.467Z,100893.57
2018-11-01T15:52:44.539Z,100894.89
2018-11-01T15:55:12.571Z,100891.77
2018-11-01T15:57:40.619Z,100892.58
2018-11-01T16:00:10.662Z,100894.77
2018-11-01T16:02:39.992Z,100896.92
2018-11-01T16:05:08.169Z,100898.23
2018-11-01T16:07:36.317Z,100897.35
2018-11-01T16:10:05.667Z,100902.36
2018-11-01T16:12:33.815Z,100903.70
2018-11-01T16:15:01.764Z,100906.70
2018-11-01T16:17:29.925Z,100909.77
2018-11-01T16:19:58.211Z,100913.02
2018-11-01T16:22:27.321Z,100917.72
2018-11-01T16:24:55.360Z,100919.41
2018-11-01T16:27:23.365Z,100923.39
2018-11-01T16:29:51.332Z,100932.60
2018-11-01T16:32:19.447Z,100936.42
2018-11-01T16:34:47.575Z,100939.50
2018-11-01T16:37:15.643Z,100947.22
2018-11-01T16:39:43.635Z,100947.49
2018-11-01T16:42:11.693Z,100950.08
2018-11-01T16:44:39.600Z,100947.14
2018-11-01T16:47:07.706Z,100948.91
2018-11-01T16:49:36.276Z,100948.24
2018-11-01T16:52:04.334Z,100950.83
2018-11-01T16:54:32.381Z,100952.26
2018-11-01T16:57:00.784Z,100950.80
2018-11-01T16:59:28.894Z,100951.19
2018-11-01T17:01:57.258Z,100947.06
2018-11-01T17:04:25.284Z,100962.53
2018-11-01T17:06:53.230Z,100956.80
2018-11-01T17:09:21.307Z,100955.86
2018-11-01T17:11:49.380Z,100961.05
2018-11-01T17:14:18.131Z,100963.05
2018-11-01T17:16:46.215Z,100966.32
2018-11-01T17:19:14.212Z,100960.62
2018-11-01T17:21:42.470Z,100958.16
2018-11-01T17:24:10.448Z,100959.36
2018-11-01T17:26:38.448Z,100954.28
2018-11-01T17:29:06.474Z,100958.22
2018-11-01T17:31:34.448Z,100960.56
2018-11-01T17:34:02.494Z,100960.62
2018-11-01T17:36:30.522Z,100958.50
2018-11-01T17:38:58.528Z,100964.58
2018-11-01T17:41:26.468Z,100954.32
2018-11-01T17:43:54.471Z,100959.53
2018-11-01T17:46:22.538Z,100957.47
2018-11-01T17:48:50.528Z,100958.93
2018-11-01T17:51:18.613Z,100949.56
2018-11-01T17:53:46.536Z,100954.38
2018-11-01T17:56:14.725Z,100958.05
2018-11-01T17:58:42.702Z,100950.80
2018-11-01T18:01:10.691Z,100953.58
2018-11-01T18:03:38.717Z,100957.53
2018-11-01T18:06:06.724Z,100956.23
2018-11-01T18:08:34.947Z,100957.98
2018-11-01T18:11:02.897Z,100954.78
2018-11-01T18:13:30.872Z,100952.48
2018-11-01T18:15:58.888Z,100957.02
2018-11-01T18:18:26.929Z,100949.48
2018-11-01T18:20:55.189Z,100945.02
2018-11-01T18:23:23.511Z,100942.31
2018-11-01T18:25:51.733Z,100937.48
2018-11-01T18:28:20.644Z,100945.02
2018-11-01T18:30:48.960Z,100936.70
2018-11-01T18:33:17.465Z,100938.45
2018-11-01T18:35:45.430Z,100933.27
2018-11-01T18:38:13.511Z,100938.62
2018-11-01T18:40:41.529Z,100940.73
2018-11-01T18:43:09.593Z,100934.95
2018-11-01T18:45:37.585Z,100935.52
2018-11-01T18:48:05.771Z,100922.80
2018-11-01T18:50:33.768Z,100915.16
2018-11-01T18:53:01.784Z,100924.22
2018-11-01T18:55:29.753Z,100929.52
2018-11-01T18:57:57.880Z,100931.77
2018-11-01T19:00:25.961Z,100931.23
2018-11-01T19:02:53.997Z,100935.52
2018-11-01T19:05:22.115Z,100921.27
2018-11-01T19:07:50.203Z,100926.53
2018-11-01T19:10:18.240Z,100933.72
2018-11-01T19:12:46.248Z,100931.14
2018-11-01T19:15:14.891Z,100930.00
2018-11-01T19:17:43.176Z,100932.95
2018-11-01T19:20:12.000Z,100930.69
2018-11-01T19:22:40.125Z,100930.69
2018-11-01T19:25:08.899Z,100924.55
2018-11-01T19:27:37.371Z,100929.77
2018-11-01T19:30:06.549Z,100931.52
2018-11-01T19:32:34.592Z,100931.95
2018-11-01T19:35:02.716Z,100928.85
2018-11-01T19:37:30.784Z,100921.41
2018-11-01T19:39:58.952Z,100928.36
2018-11-01T19:42:26.985Z,100932.89
2018-11-01T19:44:55.014Z,100930.31
2018-11-01T19:47:23.042Z,100927.16
2018-11-01T19:49:51.087Z,100921.69
2018-11-01T19:52:19.124Z,100935.52
2018-11-01T19:54:47.191Z,100937.11
2018-11-01T19:57:15.145Z,100933.39
2018-11-01T19:59:43.115Z,100939.52
2018-11-01T20:02:11.159Z,100937.77
2018-11-01T20:04:39.173Z,100938.55
2018-11-01T20:07:07.198Z,100936.73
2018-11-01T20:09:35.246Z,100937.11
2018-11-01T20:12:03.378Z,100931.98
2018-11-01T20:14:31.402Z,100930.75
2018-11-01T20:16:59.317Z,100929.95
2018-11-01T20:19:27.338Z,100930.02
2018-11-01T20:21:55.242Z,100931.96
2018-11-01T20:24:23.211Z,100932.22
2018-11-01T20:26:51.152Z,100920.48
2018-11-01T20:29:19.104Z,100924.97
2018-11-01T20:31:47.220Z,100930.91
2018-11-01T20:34:15.874Z,100929.41
2018-11-01T20:36:43.929Z,100929.84
2018-11-01T20:39:13.528Z,100934.77
2018-11-01T20:41:41.837Z,100931.19
2018-11-01T20:44:11.449Z,100943.98
2018-11-01T20:46:39.742Z,100938.27
2018-11-01T20:49:07.762Z,100941.57
2018-11-01T20:51:35.995Z,100945.30
2018-11-01T20:54:04.338Z,100939.67
2018-11-01T20:56:32.321Z,100940.64
2018-11-01T20:59:00.248Z,100939.95
2018-11-01T21:01:28.315Z,100936.55
2018-11-01T21:03:56.317Z,100939.80
2018-11-01T21:06:24.286Z,100945.22
2018-11-01T21:08:52.694Z,100939.06
2018-11-01T21:11:27.398Z,100942.52
2018-11-01T21:13:55.245Z,100941.57
2018-11-01T21:16:23.519Z,100948.50
2018-11-01T21:18:51.457Z,100937.25
2018-11-01T21:21:19.453Z,100941.05
2018-11-01T21:23:47.590Z,100939.34
2018-11-01T21:26:15.644Z,100936.77
2018-11-01T21:28:43.859Z,100942.10
2018-11-01T21:31:12.946Z,100935.12
2018-11-01T21:33:40.937Z,100930.69
2018-11-01T21:36:09.033Z,100934.17
2018-11-01T21:38:37.181Z,100932.95
2018-11-01T21:41:05.298Z,100933.03
2018-11-01T21:43:33.246Z,100934.05
2018-11-01T21:46:01.320Z,100929.58
2018-11-01T21:48:29.388Z,100926.45
2018-11-01T21:50:57.378Z,100924.77
2018-11-01T21:53:25.415Z,100927.19
2018-11-01T21:55:53.469Z,100920.30
2018-11-01T21:58:21.471Z,100921.63
2018-11-01T22:00:49.451Z,100919.29
2018-11-01T22:03:17.472Z,100918.77
2018-11-01T22:05:45.444Z,100902.73
2018-11-01T22:08:13.392Z,100902.24
2018-11-01T22:10:41.453Z,100905.27
2018-11-01T22:13:09.428Z,100916.27
2018-11-01T22:15:37.449Z,100908.80
2018-11-01T22:18:05.952Z,100909.89
2018-11-01T22:20:34.040Z,100912.07
2018-11-01T22:23:02.044Z,100909.09
2018-11-01T22:25:30.025Z,100908.58
2018-11-01T22:27:58.097Z,100920.27
2018-11-01T22:30:26.042Z,100916.97
2018-11-01T22:32:54.102Z,100913.88
2018-11-01T22:35:22.107Z,100921.19
2018-11-01T22:37:50.115Z,100915.92
2018-11-01T22:40:18.106Z,100918.80
2018-11-01T22:42:46.062Z,100917.06
2018-11-01T22:45:14.083Z,100918.03
2018-11-01T22:47:42.046Z,100922.51
2018-11-01T22:50:10.776Z,100913.45
2018-11-01T22:52:39.219Z,100918.56
2018-11-01T22:55:08.586Z,100915.28
2018-11-01T22:57:36.582Z,100924.34
2018-11-01T23:00:06.104Z,100926.39
2018-11-01T23:02:33.998Z,100924.55
2018-11-01T23:05:02.064Z,100923.91
2018-11-01T23:07:30.085Z,100924.34
2018-11-01T23:09:58.170Z,100925.05
2018-11-01T23:12:26.173Z,100924.25
2018-11-01T23:14:54.209Z,100910.48
2018-11-01T23:17:22.233Z,100924.01
2018-11-01T23:19:50.257Z,100914.12
2018-11-01T23:22:18.513Z,100921.37
2018-11-01T23:24:46.514Z,100917.86
2018-11-01T23:27:14.625Z,100921.16
2018-11-01T23:29:42.666Z,100918.44
2018-11-01T23:32:10.656Z,100921.09
2018-11-01T23:34:38.632Z,100915.28
2018-11-01T23:37:12.625Z,100924.22
2018-11-01T23:39:46.243Z,100922.84
2018-11-01T23:42:21.233Z,100926.06
2018-11-01T23:44:54.798Z,100922.51
2018-11-01T23:47:28.439Z,100923.37
2018-11-01T23:50:01.789Z,100930.89
2018-11-01T23:52:30.167Z,100927.50
2018-11-01T23:54:58.138Z,100920.82
2018-11-01T23:57:26.220Z,100914.48
2018-11-01T23:59:54.168Z,100928.81
